sensor_id;sensor_type;location;lat;lon;timestamp;temperature;humidity
75683;HTU21D;64295;44.772;39.872;2022-11-20T00:01:11;13.65;71.05
75683;HTU21D;64295;44.772;39.872;2022-11-20T00:03:38;13.64;71.16
75683;HTU21D;64295;44.772;39.872;2022-11-20T00:06:09;13.63;71.37
75683;HTU21D;64295;44.772;39.872;2022-11-20T00:08:35;13.60;71.47
75683;HTU21D;64295;44.772;39.872;2022-11-20T00:11:05;13.60;71.49
75683;HTU21D;64295;44.772;39.872;2022-11-20T00:13:32;13.59;71.51
75683;HTU21D;64295;44.772;39.872;2022-11-20T00:16:00;13.58;71.74
75683;HTU21D;64295;44.772;39.872;2022-11-20T00:18:26;13.55;71.94
75683;HTU21D;64295;44.772;39.872;2022-11-20T00:20:52;13.51;72.19
75683;HTU21D;64295;44.772;39.872;2022-11-20T00:23:19;13.50;72.35
75683;HTU21D;64295;44.772;39.872;2022-11-20T00:25:45;13.50;72.44
75683;HTU21D;64295;44.772;39.872;2022-11-20T00:31:20;13.47;72.32
75683;HTU21D;64295;44.772;39.872;2022-11-20T00:33:46;13.46;72.37
75683;HTU21D;64295;44.772;39.872;2022-11-20T00:36:15;13.44;72.41
75683;HTU21D;64295;44.772;39.872;2022-11-20T00:38:41;13.39;72.51
75683;HTU21D;64295;44.772;39.872;2022-11-20T00:41:09;13.38;72.63
75683;HTU21D;64295;44.772;39.872;2022-11-20T00:43:37;13.35;72.65
75683;HTU21D;64295;44.772;39.872;2022-11-20T00:46:24;13.33;72.67
75683;HTU21D;64295;44.772;39.872;2022-11-20T00:48:51;13.31;72.63
75683;HTU21D;64295;44.772;39.872;2022-11-20T00:51:19;13.26;72.62
75683;HTU21D;64295;44.772;39.872;2022-11-20T00:53:46;13.24;72.59
75683;HTU21D;64295;44.772;39.872;2022-11-20T00:56:14;13.21;72.52
75683;HTU21D;64295;44.772;39.872;2022-11-20T00:58:42;13.20;72.43
75683;HTU21D;64295;44.772;39.872;2022-11-20T01:01:20;13.16;72.48
75683;HTU21D;64295;44.772;39.872;2022-11-20T01:03:48;13.08;72.54
75683;HTU21D;64295;44.772;39.872;2022-11-20T01:06:17;13.03;72.55
75683;HTU21D;64295;44.772;39.872;2022-11-20T01:08:43;13.02;72.53
75683;HTU21D;64295;44.772;39.872;2022-11-20T01:11:12;12.97;72.52
75683;HTU21D;64295;44.772;39.872;2022-11-20T01:13:40;13.00;72.41
75683;HTU21D;64295;44.772;39.872;2022-11-20T01:16:21;12.96;72.36
75683;HTU21D;64295;44.772;39.872;2022-11-20T01:18:49;12.90;72.41
75683;HTU21D;64295;44.772;39.872;2022-11-20T01:21:17;12.86;72.50
75683;HTU21D;64295;44.772;39.872;2022-11-20T01:23:44;12.84;72.48
75683;HTU21D;64295;44.772;39.872;2022-11-20T01:26:15;12.79;72.51
75683;HTU21D;64295;44.772;39.872;2022-11-20T01:28:42;12.77;72.48
75683;HTU21D;64295;44.772;39.872;2022-11-20T01:31:32;12.76;72.45
75683;HTU21D;64295;44.772;39.872;2022-11-20T01:34:05;12.70;72.41
75683;HTU21D;64295;44.772;39.872;2022-11-20T01:36:33;12.69;72.41
75683;HTU21D;64295;44.772;39.872;2022-11-20T01:39:03;12.64;72.38
75683;HTU21D;64295;44.772;39.872;2022-11-20T01:41:31;12.63;72.37
75683;HTU21D;64295;44.772;39.872;2022-11-20T01:44:18;12.57;72.37
75683;HTU21D;64295;44.772;39.872;2022-11-20T01:47:04;12.53;72.44
75683;HTU21D;64295;44.772;39.872;2022-11-20T01:49:41;12.52;72.41
75683;HTU21D;64295;44.772;39.872;2022-11-20T01:52:16;12.51;72.36
75683;HTU21D;64295;44.772;39.872;2022-11-20T01:54:50;12.49;72.34
75683;HTU21D;64295;44.772;39.872;2022-11-20T01:57:18;12.48;72.34
75683;HTU21D;64295;44.772;39.872;2022-11-20T01:59:51;12.48;72.39
75683;HTU21D;64295;44.772;39.872;2022-11-20T02:02:20;12.49;72.45
75683;HTU21D;64295;44.772;39.872;2022-11-20T02:04:47;12.49;72.48
75683;HTU21D;64295;44.772;39.872;2022-11-20T02:07:15;12.49;72.65
75683;HTU21D;64295;44.772;39.872;2022-11-20T02:09:42;12.50;72.71
75683;HTU21D;64295;44.772;39.872;2022-11-20T02:12:08;12.49;72.84
75683;HTU21D;64295;44.772;39.872;2022-11-20T02:14:54;12.48;72.90
75683;HTU21D;64295;44.772;39.872;2022-11-20T02:17:19;12.47;73.04
75683;HTU21D;64295;44.772;39.872;2022-11-20T02:19:46;12.46;73.09
75683;HTU21D;64295;44.772;39.872;2022-11-20T02:22:24;12.43;73.20
75683;HTU21D;64295;44.772;39.872;2022-11-20T02:24:51;12.38;73.22
75683;HTU21D;64295;44.772;39.872;2022-11-20T02:27:18;12.36;73.25
75683;HTU21D;64295;44.772;39.872;2022-11-20T02:30:04;12.33;73.27
75683;HTU21D;64295;44.772;39.872;2022-11-20T02:32:39;12.31;73.18
75683;HTU21D;64295;44.772;39.872;2022-11-20T02:38:15;12.22;73.01
75683;HTU21D;64295;44.772;39.872;2022-11-20T02:40:43;12.18;73.10
75683;HTU21D;64295;44.772;39.872;2022-11-20T02:43:09;12.17;73.16
75683;HTU21D;64295;44.772;39.872;2022-11-20T02:45:35;12.17;73.09
75683;HTU21D;64295;44.772;39.872;2022-11-20T02:48:01;12.12;73.07
75683;HTU21D;64295;44.772;39.872;2022-11-20T02:50:27;12.10;73.06
75683;HTU21D;64295;44.772;39.872;2022-11-20T02:52:53;12.11;73.11
75683;HTU21D;64295;44.772;39.872;2022-11-20T02:55:19;12.11;73.28
75683;HTU21D;64295;44.772;39.872;2022-11-20T02:57:45;12.06;73.50
75683;HTU21D;64295;44.772;39.872;2022-11-20T03:00:11;12.06;73.51
75683;HTU21D;64295;44.772;39.872;2022-11-20T03:02:38;12.02;73.61
75683;HTU21D;64295;44.772;39.872;2022-11-20T03:05:04;11.96;73.81
75683;HTU21D;64295;44.772;39.872;2022-11-20T03:07:30;11.91;74.05
75683;HTU21D;64295;44.772;39.872;2022-11-20T03:10:00;11.90;74.14
75683;HTU21D;64295;44.772;39.872;2022-11-20T03:12:30;11.90;74.25
75683;HTU21D;64295;44.772;39.872;2022-11-20T03:15:05;11.87;74.37
75683;HTU21D;64295;44.772;39.872;2022-11-20T03:17:33;11.85;74.44
75683;HTU21D;64295;44.772;39.872;2022-11-20T03:19:59;11.85;74.57
75683;HTU21D;64295;44.772;39.872;2022-11-20T03:22:29;11.85;74.60
75683;HTU21D;64295;44.772;39.872;2022-11-20T03:24:55;11.85;74.63
75683;HTU21D;64295;44.772;39.872;2022-11-20T03:27:21;11.84;74.68
75683;HTU21D;64295;44.772;39.872;2022-11-20T03:29:47;11.86;74.73
75683;HTU21D;64295;44.772;39.872;2022-11-20T03:32:13;11.84;74.67
75683;HTU21D;64295;44.772;39.872;2022-11-20T03:34:39;11.79;74.71
75683;HTU21D;64295;44.772;39.872;2022-11-20T03:37:15;11.75;74.99
75683;HTU21D;64295;44.772;39.872;2022-11-20T03:39:41;11.73;74.98
75683;HTU21D;64295;44.772;39.872;2022-11-20T03:42:08;11.70;75.11
75683;HTU21D;64295;44.772;39.872;2022-11-20T03:44:54;11.68;75.13
75683;HTU21D;64295;44.772;39.872;2022-11-20T03:47:20;11.69;75.19
75683;HTU21D;64295;44.772;39.872;2022-11-20T03:49:46;11.68;75.25
75683;HTU21D;64295;44.772;39.872;2022-11-20T03:52:12;11.64;75.31
75683;HTU21D;64295;44.772;39.872;2022-11-20T03:54:38;11.61;75.31
75683;HTU21D;64295;44.772;39.872;2022-11-20T03:57:04;11.61;75.34
75683;HTU21D;64295;44.772;39.872;2022-11-20T03:59:29;11.58;75.45
75683;HTU21D;64295;44.772;39.872;2022-11-20T04:01:55;11.59;75.44
75683;HTU21D;64295;44.772;39.872;2022-11-20T04:04:21;11.57;75.52
75683;HTU21D;64295;44.772;39.872;2022-11-20T04:06:47;11.58;75.53
75683;HTU21D;64295;44.772;39.872;2022-11-20T04:09:13;11.58;75.60
75683;HTU21D;64295;44.772;39.872;2022-11-20T04:11:40;11.58;75.68
75683;HTU21D;64295;44.772;39.872;2022-11-20T04:14:11;11.59;75.68
75683;HTU21D;64295;44.772;39.872;2022-11-20T04:16:38;11.61;75.54
75683;HTU21D;64295;44.772;39.872;2022-11-20T04:19:06;11.60;75.49
75683;HTU21D;64295;44.772;39.872;2022-11-20T04:21:32;11.59;75.48
75683;HTU21D;64295;44.772;39.872;2022-11-20T04:23:58;11.58;75.47
75683;HTU21D;64295;44.772;39.872;2022-11-20T04:26:27;11.56;75.47
75683;HTU21D;64295;44.772;39.872;2022-11-20T04:28:53;11.54;75.41
75683;HTU21D;64295;44.772;39.872;2022-11-20T04:31:26;11.51;75.37
75683;HTU21D;64295;44.772;39.872;2022-11-20T04:33:52;11.48;75.27
75683;HTU21D;64295;44.772;39.872;2022-11-20T04:36:22;11.47;75.24
75683;HTU21D;64295;44.772;39.872;2022-11-20T04:38:55;11.46;75.27
75683;HTU21D;64295;44.772;39.872;2022-11-20T04:41:23;11.44;75.24
75683;HTU21D;64295;44.772;39.872;2022-11-20T04:43:51;11.41;75.30
75683;HTU21D;64295;44.772;39.872;2022-11-20T04:46:19;11.39;75.42
75683;HTU21D;64295;44.772;39.872;2022-11-20T04:48:45;11.45;75.55
75683;HTU21D;64295;44.772;39.872;2022-11-20T04:51:11;11.53;75.43
75683;HTU21D;64295;44.772;39.872;2022-11-20T04:53:38;11.57;75.46
75683;HTU21D;64295;44.772;39.872;2022-11-20T04:56:06;11.61;75.62
75683;HTU21D;64295;44.772;39.872;2022-11-20T04:58:35;11.67;75.54
75683;HTU21D;64295;44.772;39.872;2022-11-20T05:01:06;11.66;75.67
75683;HTU21D;64295;44.772;39.872;2022-11-20T05:03:32;11.66;75.80
75683;HTU21D;64295;44.772;39.872;2022-11-20T05:06:03;11.69;75.95
75683;HTU21D;64295;44.772;39.872;2022-11-20T05:08:30;11.76;75.79
75683;HTU21D;64295;44.772;39.872;2022-11-20T05:11:04;11.83;75.86
75683;HTU21D;64295;44.772;39.872;2022-11-20T05:13:31;11.88;75.76
75683;HTU21D;64295;44.772;39.872;2022-11-20T05:16:05;11.92;75.99
75683;HTU21D;64295;44.772;39.872;2022-11-20T05:18:33;11.99;75.95
75683;HTU21D;64295;44.772;39.872;2022-11-20T05:21:00;12.07;75.93
75683;HTU21D;64295;44.772;39.872;2022-11-20T05:23:27;12.16;75.98
75683;HTU21D;64295;44.772;39.872;2022-11-20T05:25:55;12.26;76.02
75683;HTU21D;64295;44.772;39.872;2022-11-20T05:28:23;12.34;75.94
75683;HTU21D;64295;44.772;39.872;2022-11-20T05:30:49;12.38;75.99
75683;HTU21D;64295;44.772;39.872;2022-11-20T05:33:15;12.42;76.11
75683;HTU21D;64295;44.772;39.872;2022-11-20T05:35:41;12.45;76.22
75683;HTU21D;64295;44.772;39.872;2022-11-20T05:38:07;12.47;76.34
75683;HTU21D;64295;44.772;39.872;2022-11-20T05:40:33;12.51;76.42
75683;HTU21D;64295;44.772;39.872;2022-11-20T05:43:00;12.57;76.50
75683;HTU21D;64295;44.772;39.872;2022-11-20T05:45:26;12.59;76.59
75683;HTU21D;64295;44.772;39.872;2022-11-20T05:47:51;12.62;76.72
75683;HTU21D;64295;44.772;39.872;2022-11-20T05:50:18;12.64;76.79
75683;HTU21D;64295;44.772;39.872;2022-11-20T05:52:44;12.72;76.82
75683;HTU21D;64295;44.772;39.872;2022-11-20T05:55:10;12.86;76.77
75683;HTU21D;64295;44.772;39.872;2022-11-20T05:57:36;12.99;76.65
75683;HTU21D;64295;44.772;39.872;2022-11-20T06:00:03;13.05;76.59
75683;HTU21D;64295;44.772;39.872;2022-11-20T06:02:30;13.01;76.80
75683;HTU21D;64295;44.772;39.872;2022-11-20T06:04:55;13.07;76.98
75683;HTU21D;64295;44.772;39.872;2022-11-20T06:07:21;13.19;76.89
75683;HTU21D;64295;44.772;39.872;2022-11-20T06:09:47;13.30;76.78
75683;HTU21D;64295;44.772;39.872;2022-11-20T06:12:13;13.44;76.75
75683;HTU21D;64295;44.772;39.872;2022-11-20T06:14:39;13.59;76.61
75683;HTU21D;64295;44.772;39.872;2022-11-20T06:17:05;13.75;76.37
75683;HTU21D;64295;44.772;39.872;2022-11-20T06:19:31;13.88;76.24
75683;HTU21D;64295;44.772;39.872;2022-11-20T06:21:57;14.03;76.12
75683;HTU21D;64295;44.772;39.872;2022-11-20T06:24:23;14.14;76.06
75683;HTU21D;64295;44.772;39.872;2022-11-20T06:26:51;14.33;75.86
75683;HTU21D;64295;44.772;39.872;2022-11-20T06:29:17;14.48;75.83
75683;HTU21D;64295;44.772;39.872;2022-11-20T06:31:43;14.73;75.57
75683;HTU21D;64295;44.772;39.872;2022-11-20T06:34:08;14.91;75.27
75683;HTU21D;64295;44.772;39.872;2022-11-20T06:36:34;15.04;75.09
75683;HTU21D;64295;44.772;39.872;2022-11-20T06:39:00;15.13;75.19
75683;HTU21D;64295;44.772;39.872;2022-11-20T06:41:26;15.27;74.98
75683;HTU21D;64295;44.772;39.872;2022-11-20T06:43:53;15.40;74.83
75683;HTU21D;64295;44.772;39.872;2022-11-20T06:46:20;15.63;74.48
75683;HTU21D;64295;44.772;39.872;2022-11-20T06:48:47;15.80;74.13
75683;HTU21D;64295;44.772;39.872;2022-11-20T06:51:13;15.91;73.86
75683;HTU21D;64295;44.772;39.872;2022-11-20T06:53:39;16.01;73.59
75683;HTU21D;64295;44.772;39.872;2022-11-20T06:56:06;16.10;73.43
75683;HTU21D;64295;44.772;39.872;2022-11-20T06:58:35;16.15;73.29
75683;HTU21D;64295;44.772;39.872;2022-11-20T07:01:07;16.19;73.15
75683;HTU21D;64295;44.772;39.872;2022-11-20T07:03:34;16.25;72.96
75683;HTU21D;64295;44.772;39.872;2022-11-20T07:06:01;16.34;72.93
75683;HTU21D;64295;44.772;39.872;2022-11-20T07:08:27;16.47;72.65
75683;HTU21D;64295;44.772;39.872;2022-11-20T07:11:00;16.56;72.51
75683;HTU21D;64295;44.772;39.872;2022-11-20T07:13:32;16.71;72.36
75683;HTU21D;64295;44.772;39.872;2022-11-20T07:16:04;16.80;72.17
75683;HTU21D;64295;44.772;39.872;2022-11-20T07:18:30;16.91;71.92
75683;HTU21D;64295;44.772;39.872;2022-11-20T07:21:00;17.03;71.60
75683;HTU21D;64295;44.772;39.872;2022-11-20T07:23:27;17.13;71.26
75683;HTU21D;64295;44.772;39.872;2022-11-20T07:25:52;17.21;71.05
75683;HTU21D;64295;44.772;39.872;2022-11-20T07:28:18;17.26;71.00
75683;HTU21D;64295;44.772;39.872;2022-11-20T07:30:50;17.31;70.75
75683;HTU21D;64295;44.772;39.872;2022-11-20T07:33:16;17.40;70.50
75683;HTU21D;64295;44.772;39.872;2022-11-20T07:35:41;17.54;70.07
75683;HTU21D;64295;44.772;39.872;2022-11-20T07:38:07;17.69;69.65
75683;HTU21D;64295;44.772;39.872;2022-11-20T07:40:33;17.84;69.37
75683;HTU21D;64295;44.772;39.872;2022-11-20T07:42:59;17.97;69.05
75683;HTU21D;64295;44.772;39.872;2022-11-20T07:45:25;18.07;68.69
75683;HTU21D;64295;44.772;39.872;2022-11-20T07:47:51;18.12;68.81
75683;HTU21D;64295;44.772;39.872;2022-11-20T07:50:18;18.20;68.87
75683;HTU21D;64295;44.772;39.872;2022-11-20T07:52:44;18.27;68.66
75683;HTU21D;64295;44.772;39.872;2022-11-20T07:55:10;18.39;68.82
75683;HTU21D;64295;44.772;39.872;2022-11-20T07:57:37;18.48;68.73
75683;HTU21D;64295;44.772;39.872;2022-11-20T08:00:04;18.59;68.62
75683;HTU21D;64295;44.772;39.872;2022-11-20T08:02:38;18.74;68.20
75683;HTU21D;64295;44.772;39.872;2022-11-20T08:05:05;18.92;67.90
75683;HTU21D;64295;44.772;39.872;2022-11-20T08:07:36;19.11;67.14
75683;HTU21D;64295;44.772;39.872;2022-11-20T08:10:03;19.22;66.89
75683;HTU21D;64295;44.772;39.872;2022-11-20T08:12:29;19.37;67.01
75683;HTU21D;64295;44.772;39.872;2022-11-20T08:15:13;19.46;66.87
75683;HTU21D;64295;44.772;39.872;2022-11-20T08:17:39;19.59;66.55
75683;HTU21D;64295;44.772;39.872;2022-11-20T08:20:05;19.77;65.95
75683;HTU21D;64295;44.772;39.872;2022-11-20T08:22:31;19.92;65.85
75683;HTU21D;64295;44.772;39.872;2022-11-20T08:24:57;20.15;65.40
75683;HTU21D;64295;44.772;39.872;2022-11-20T08:27:24;20.28;65.05
75683;HTU21D;64295;44.772;39.872;2022-11-20T08:29:50;20.46;65.56
75683;HTU21D;64295;44.772;39.872;2022-11-20T08:32:16;20.71;65.87
75683;HTU21D;64295;44.772;39.872;2022-11-20T08:34:45;20.89;65.48
75683;HTU21D;64295;44.772;39.872;2022-11-20T08:37:12;21.01;64.97
75683;HTU21D;64295;44.772;39.872;2022-11-20T08:39:37;21.18;65.00
75683;HTU21D;64295;44.772;39.872;2022-11-20T08:42:08;21.43;64.51
75683;HTU21D;64295;44.772;39.872;2022-11-20T08:44:34;21.55;63.95
75683;HTU21D;64295;44.772;39.872;2022-11-20T08:47:00;21.70;63.62
75683;HTU21D;64295;44.772;39.872;2022-11-20T08:49:26;21.81;62.89
75683;HTU21D;64295;44.772;39.872;2022-11-20T08:51:52;21.92;61.54
75683;HTU21D;64295;44.772;39.872;2022-11-20T08:54:20;22.03;61.08
75683;HTU21D;64295;44.772;39.872;2022-11-20T08:56:52;22.14;61.33
75683;HTU21D;64295;44.772;39.872;2022-11-20T08:59:18;22.32;60.59
75683;HTU21D;64295;44.772;39.872;2022-11-20T09:01:44;22.39;61.12
75683;HTU21D;64295;44.772;39.872;2022-11-20T09:04:10;22.55;60.18
75683;HTU21D;64295;44.772;39.872;2022-11-20T09:06:37;22.67;59.62
75683;HTU21D;64295;44.772;39.872;2022-11-20T09:09:03;22.76;58.76
75683;HTU21D;64295;44.772;39.872;2022-11-20T09:11:29;22.86;58.36
75683;HTU21D;64295;44.772;39.872;2022-11-20T09:13:55;22.81;58.25
75683;HTU21D;64295;44.772;39.872;2022-11-20T09:16:21;22.62;57.94
75683;HTU21D;64295;44.772;39.872;2022-11-20T09:18:49;22.40;59.12
75683;HTU21D;64295;44.772;39.872;2022-11-20T09:21:16;22.28;58.70
75683;HTU21D;64295;44.772;39.872;2022-11-20T09:23:42;22.22;59.67
75683;HTU21D;64295;44.772;39.872;2022-11-20T09:26:13;22.23;59.31
75683;HTU21D;64295;44.772;39.872;2022-11-20T09:28:39;22.18;59.53
75683;HTU21D;64295;44.772;39.872;2022-11-20T09:34:02;22.17;59.66
75683;HTU21D;64295;44.772;39.872;2022-11-20T09:36:28;22.16;60.08
75683;HTU21D;64295;44.772;39.872;2022-11-20T09:38:54;22.21;60.22
75683;HTU21D;64295;44.772;39.872;2022-11-20T09:41:42;22.26;59.39
75683;HTU21D;64295;44.772;39.872;2022-11-20T09:47:26;22.42;58.78
75683;HTU21D;64295;44.772;39.872;2022-11-20T09:50:17;22.65;58.68
75683;HTU21D;64295;44.772;39.872;2022-11-20T09:55:42;22.85;58.54
75683;HTU21D;64295;44.772;39.872;2022-11-20T09:58:19;22.94;58.18
75683;HTU21D;64295;44.772;39.872;2022-11-20T10:00:47;22.94;58.32
75683;HTU21D;64295;44.772;39.872;2022-11-20T10:03:21;23.06;57.93
75683;HTU21D;64295;44.772;39.872;2022-11-20T10:05:54;23.09;57.08
75683;HTU21D;64295;44.772;39.872;2022-11-20T10:10:56;23.12;56.83
75683;HTU21D;64295;44.772;39.872;2022-11-20T10:13:46;23.16;56.46
75683;HTU21D;64295;44.772;39.872;2022-11-20T10:19:11;23.22;55.44
75683;HTU21D;64295;44.772;39.872;2022-11-20T10:24:55;23.20;56.68
75683;HTU21D;64295;44.772;39.872;2022-11-20T10:27:42;23.28;56.29
75683;HTU21D;64295;44.772;39.872;2022-11-20T10:30:13;23.50;56.56
75683;HTU21D;64295;44.772;39.872;2022-11-20T10:32:47;23.74;55.55
75683;HTU21D;64295;44.772;39.872;2022-11-20T10:38:00;23.91;55.07
75683;HTU21D;64295;44.772;39.872;2022-11-20T10:40:35;23.82;54.53
75683;HTU21D;64295;44.772;39.872;2022-11-20T10:43:32;23.55;54.24
75683;HTU21D;64295;44.772;39.872;2022-11-20T10:46:01;23.37;54.49
75683;HTU21D;64295;44.772;39.872;2022-11-20T10:48:31;23.21;54.54
75683;HTU21D;64295;44.772;39.872;2022-11-20T10:56:54;22.85;55.39
75683;HTU21D;64295;44.772;39.872;2022-11-20T11:02:01;22.78;55.76
75683;HTU21D;64295;44.772;39.872;2022-11-20T11:04:53;22.87;55.61
75683;HTU21D;64295;44.772;39.872;2022-11-20T11:07:24;23.07;55.42
75683;HTU21D;64295;44.772;39.872;2022-11-20T11:09:54;23.12;54.82
75683;HTU21D;64295;44.772;39.872;2022-11-20T11:12:24;22.99;54.54
75683;HTU21D;64295;44.772;39.872;2022-11-20T11:14:55;22.91;54.37
75683;HTU21D;64295;44.772;39.872;2022-11-20T11:17:26;22.84;54.39
75683;HTU21D;64295;44.772;39.872;2022-11-20T11:25:32;22.80;55.10
75683;HTU21D;64295;44.772;39.872;2022-11-20T11:28:25;22.81;54.78
75683;HTU21D;64295;44.772;39.872;2022-11-20T11:30:51;22.75;54.90
75683;HTU21D;64295;44.772;39.872;2022-11-20T11:33:25;22.70;54.94
75683;HTU21D;64295;44.772;39.872;2022-11-20T11:35:54;22.65;54.78
75683;HTU21D;64295;44.772;39.872;2022-11-20T11:38:41;22.57;54.91
75683;HTU21D;64295;44.772;39.872;2022-11-20T11:41:16;22.55;55.16
75683;HTU21D;64295;44.772;39.872;2022-11-20T11:43:59;22.57;55.55
75683;HTU21D;64295;44.772;39.872;2022-11-20T11:46:51;22.64;55.16
75683;HTU21D;64295;44.772;39.872;2022-11-20T11:49:19;22.63;54.99
75683;HTU21D;64295;44.772;39.872;2022-11-20T11:52:10;22.55;55.22
75683;HTU21D;64295;44.772;39.872;2022-11-20T11:54:46;22.52;55.16
75683;HTU21D;64295;44.772;39.872;2022-11-20T11:57:26;22.43;55.22
75683;HTU21D;64295;44.772;39.872;2022-11-20T12:00:08;22.35;55.23
75683;HTU21D;64295;44.772;39.872;2022-11-20T12:10:47;22.03;55.93
75683;HTU21D;64295;44.772;39.872;2022-11-20T12:13:30;21.96;55.98
75683;HTU21D;64295;44.772;39.872;2022-11-20T12:16:02;21.87;56.00
75683;HTU21D;64295;44.772;39.872;2022-11-20T12:18:29;21.79;56.26
75683;HTU21D;64295;44.772;39.872;2022-11-20T12:21:20;21.77;56.36
75683;HTU21D;64295;44.772;39.872;2022-11-20T12:26:58;21.78;56.55
75683;HTU21D;64295;44.772;39.872;2022-11-20T12:29:53;21.77;56.58
75683;HTU21D;64295;44.772;39.872;2022-11-20T12:44:10;21.60;56.96
75683;HTU21D;64295;44.772;39.872;2022-11-20T12:47:14;21.51;57.12
75683;HTU21D;64295;44.772;39.872;2022-11-20T12:50:38;21.45;57.27
75683;HTU21D;64295;44.772;39.872;2022-11-20T12:56:43;21.27;57.75
75683;HTU21D;64295;44.772;39.872;2022-11-20T13:00:10;21.17;57.93
75683;HTU21D;64295;44.772;39.872;2022-11-20T13:03:06;21.05;58.21
75683;HTU21D;64295;44.772;39.872;2022-11-20T13:08:42;20.93;58.50
75683;HTU21D;64295;44.772;39.872;2022-11-20T13:19:25;20.72;59.08
75683;HTU21D;64295;44.772;39.872;2022-11-20T13:21:52;20.66;59.16
75683;HTU21D;64295;44.772;39.872;2022-11-20T13:29:35;20.48;59.48
75683;HTU21D;64295;44.772;39.872;2022-11-20T13:32:12;20.43;59.62
75683;HTU21D;64295;44.772;39.872;2022-11-20T13:37:31;20.29;59.76
75683;HTU21D;64295;44.772;39.872;2022-11-20T13:40:22;20.24;59.83
75683;HTU21D;64295;44.772;39.872;2022-11-20T13:43:07;20.18;59.88
75683;HTU21D;64295;44.772;39.872;2022-11-20T13:45:36;20.11;60.00
75683;HTU21D;64295;44.772;39.872;2022-11-20T13:48:15;20.00;60.18
75683;HTU21D;64295;44.772;39.872;2022-11-20T13:56:18;19.76;60.54
75683;HTU21D;64295;44.772;39.872;2022-11-20T13:59:08;19.54;60.86
75683;HTU21D;64295;44.772;39.872;2022-11-20T14:01:38;19.35;61.37
75683;HTU21D;64295;44.772;39.872;2022-11-20T14:04:15;19.21;61.60
75683;HTU21D;64295;44.772;39.872;2022-11-20T14:06:45;19.11;61.83
75683;HTU21D;64295;44.772;39.872;2022-11-20T14:09:27;19.02;61.98
75683;HTU21D;64295;44.772;39.872;2022-11-20T14:11:54;18.99;62.06
75683;HTU21D;64295;44.772;39.872;2022-11-20T14:14:22;18.96;62.11
75683;HTU21D;64295;44.772;39.872;2022-11-20T14:16:49;18.88;62.06
75683;HTU21D;64295;44.772;39.872;2022-11-20T14:19:43;18.78;62.12
75683;HTU21D;64295;44.772;39.872;2022-11-20T14:24:46;18.53;62.64
75683;HTU21D;64295;44.772;39.872;2022-11-20T14:31:24;18.32;62.95
75683;HTU21D;64295;44.772;39.872;2022-11-20T14:33:55;18.29;63.01
75683;HTU21D;64295;44.772;39.872;2022-11-20T14:36:23;18.30;62.98
75683;HTU21D;64295;44.772;39.872;2022-11-20T14:38:51;18.32;62.92
75683;HTU21D;64295;44.772;39.872;2022-11-20T14:41:22;18.32;62.90
75683;HTU21D;64295;44.772;39.872;2022-11-20T14:43:58;18.30;62.81
75683;HTU21D;64295;44.772;39.872;2022-11-20T14:46:25;18.29;62.84
75683;HTU21D;64295;44.772;39.872;2022-11-20T14:48:54;18.24;62.85
75683;HTU21D;64295;44.772;39.872;2022-11-20T14:51:34;18.18;62.92
75683;HTU21D;64295;44.772;39.872;2022-11-20T14:56:38;18.07;62.98
75683;HTU21D;64295;44.772;39.872;2022-11-20T14:59:05;17.96;63.11
75683;HTU21D;64295;44.772;39.872;2022-11-20T15:01:39;17.94;63.21
75683;HTU21D;64295;44.772;39.872;2022-11-20T15:04:09;17.90;63.17
75683;HTU21D;64295;44.772;39.872;2022-11-20T15:06:35;17.84;63.23
75683;HTU21D;64295;44.772;39.872;2022-11-20T15:09:12;17.80;63.26
75683;HTU21D;64295;44.772;39.872;2022-11-20T15:11:38;17.74;63.28
75683;HTU21D;64295;44.772;39.872;2022-11-20T15:14:08;17.69;63.39
75683;HTU21D;64295;44.772;39.872;2022-11-20T15:16:34;17.69;63.42
75683;HTU21D;64295;44.772;39.872;2022-11-20T15:19:02;17.65;63.39
75683;HTU21D;64295;44.772;39.872;2022-11-20T15:21:28;17.58;63.41
75683;HTU21D;64295;44.772;39.872;2022-11-20T15:23:54;17.50;63.50
75683;HTU21D;64295;44.772;39.872;2022-11-20T15:26:24;17.45;63.53
75683;HTU21D;64295;44.772;39.872;2022-11-20T15:28:51;17.38;63.51
75683;HTU21D;64295;44.772;39.872;2022-11-20T15:31:20;17.26;63.63
75683;HTU21D;64295;44.772;39.872;2022-11-20T15:33:46;17.18;63.79
75683;HTU21D;64295;44.772;39.872;2022-11-20T15:36:13;17.05;64.01
75683;HTU21D;64295;44.772;39.872;2022-11-20T15:38:40;16.93;64.21
75683;HTU21D;64295;44.772;39.872;2022-11-20T15:41:06;16.86;64.32
75683;HTU21D;64295;44.772;39.872;2022-11-20T15:43:33;16.85;64.34
75683;HTU21D;64295;44.772;39.872;2022-11-20T15:46:03;16.76;64.37
75683;HTU21D;64295;44.772;39.872;2022-11-20T15:48:34;16.66;64.59
75683;HTU21D;64295;44.772;39.872;2022-11-20T15:51:11;16.61;64.68
75683;HTU21D;64295;44.772;39.872;2022-11-20T15:53:38;16.49;64.79
75683;HTU21D;64295;44.772;39.872;2022-11-20T15:56:06;16.44;64.90
75683;HTU21D;64295;44.772;39.872;2022-11-20T15:58:32;16.39;64.91
75683;HTU21D;64295;44.772;39.872;2022-11-20T16:00:58;16.32;64.98
75683;HTU21D;64295;44.772;39.872;2022-11-20T16:03:24;16.29;65.08
75683;HTU21D;64295;44.772;39.872;2022-11-20T16:05:51;16.21;65.20
75683;HTU21D;64295;44.772;39.872;2022-11-20T16:08:18;16.16;65.32
75683;HTU21D;64295;44.772;39.872;2022-11-20T16:10:44;16.11;65.38
75683;HTU21D;64295;44.772;39.872;2022-11-20T16:13:16;16.08;65.46
75683;HTU21D;64295;44.772;39.872;2022-11-20T16:16:03;16.05;65.62
75683;HTU21D;64295;44.772;39.872;2022-11-20T16:18:31;16.04;65.65
75683;HTU21D;64295;44.772;39.872;2022-11-20T16:20:57;16.01;65.62
75683;HTU21D;64295;44.772;39.872;2022-11-20T16:23:23;15.95;65.78
75683;HTU21D;64295;44.772;39.872;2022-11-20T16:25:50;15.95;65.89
75683;HTU21D;64295;44.772;39.872;2022-11-20T16:28:17;15.97;65.89
75683;HTU21D;64295;44.772;39.872;2022-11-20T16:30:43;15.93;66.01
75683;HTU21D;64295;44.772;39.872;2022-11-20T16:33:18;15.91;66.11
75683;HTU21D;64295;44.772;39.872;2022-11-20T16:35:44;15.91;65.89
75683;HTU21D;64295;44.772;39.872;2022-11-20T16:38:10;15.91;65.88
75683;HTU21D;64295;44.772;39.872;2022-11-20T16:40:37;15.87;65.99
75683;HTU21D;64295;44.772;39.872;2022-11-20T16:43:09;15.83;66.18
75683;HTU21D;64295;44.772;39.872;2022-11-20T16:45:40;15.82;66.33
75683;HTU21D;64295;44.772;39.872;2022-11-20T16:48:06;15.84;66.33
75683;HTU21D;64295;44.772;39.872;2022-11-20T16:50:32;15.85;66.41
75683;HTU21D;64295;44.772;39.872;2022-11-20T16:52:58;15.87;66.42
75683;HTU21D;64295;44.772;39.872;2022-11-20T16:55:24;15.87;66.45
75683;HTU21D;64295;44.772;39.872;2022-11-20T16:57:50;15.86;66.47
75683;HTU21D;64295;44.772;39.872;2022-11-20T17:00:15;15.86;66.54
75683;HTU21D;64295;44.772;39.872;2022-11-20T17:02:41;15.85;66.53